Time;durP1;ratioP1;P1;durP2;ratioP2;P2;SDS_P1;SDS_P2;PMS_P1;PMS_P2;Temp;Humidity;BMP_temperature;BMP_pressure;BME280_temperature;BME280_humidity;BME280_pressure;Samples;Min_cycle;Max_cycle;Signal;HPM_P1;HPM_P2
2022/04/05 00:00:19;;;;;;;9.23;5.60;;;5.80;63.90;;;5.91;53.64;97058.13;4929807;29;20062;-40
2022/04/05 00:02:46;;;;;;;6.53;5.20;;;5.80;63.70;;;5.95;54.23;97057.81;4928904;29;20051;-40
2022/04/05 00:05:14;;;;;;;8.60;6.00;;;5.80;63.60;;;5.96;54.26;97051.59;4929109;29;20234;-40
2022/04/05 00:07:42;;;;;;;10.87;5.93;;;5.80;63.50;;;5.99;54.12;97053.94;4929782;29;20056;-40
2022/04/05 00:10:10;;;;;;;9.50;5.40;;;5.80;63.30;;;5.90;53.86;97048.53;4929265;29;20059;-40
2022/04/05 00:12:38;;;;;;;7.40;5.53;;;5.80;62.70;;;5.97;53.36;97051.47;4928918;29;20062;-40
2022/04/05 00:15:09;;;;;;;9.30;6.23;;;5.80;63.30;;;5.99;53.92;97041.56;4928435;29;20261;-40
2022/04/05 00:17:38;;;;;;;7.80;5.80;;;5.80;63.20;;;6.01;54.36;97041.41;4929134;29;20515;-40
2022/04/05 00:20:18;;;;;;;9.30;6.27;;;5.80;63.10;;;6.04;53.70;97036.66;4927438;29;20070;-40
2022/04/05 00:22:46;;;;;;;6.83;5.33;;;5.90;63.40;;;6.06;54.20;97040.00;4929614;29;20242;-40
2022/04/05 00:25:14;;;;;;;7.13;5.03;;;5.90;63.20;;;6.08;53.58;97037.19;4928096;29;20345;-40
2022/04/05 00:27:42;;;;;;;7.47;5.30;;;5.90;63.20;;;6.12;53.15;97038.56;4927858;29;20079;-40
2022/04/05 00:30:11;;;;;;;8.10;5.43;;;5.90;63.20;;;6.10;53.87;97040.53;4929491;29;20066;-40
2022/04/05 00:32:39;;;;;;;7.77;5.33;;;5.90;62.80;;;6.11;54.12;97037.75;4927755;29;20055;-40
2022/04/05 00:35:08;;;;;;;7.10;5.63;;;6.00;63.00;;;6.12;53.97;97038.56;4929291;29;20265;-40
2022/04/05 00:37:54;;;;;;;7.67;5.60;;;6.00;63.10;;;6.08;53.68;97035.38;4929135;29;20055;-41
2022/04/05 00:40:22;;;;;;;9.20;5.80;;;6.00;63.00;;;6.09;53.87;97036.25;4928833;29;20047;-40
2022/04/05 00:42:50;;;;;;;6.40;5.23;;;6.00;63.00;;;6.04;53.70;97023.44;4928759;29;20062;-40
2022/04/05 00:45:20;;;;;;;9.60;4.80;;;6.00;62.90;;;5.97;54.54;97021.53;4928594;29;20055;-40
2022/04/05 00:47:51;;;;;;;7.37;6.07;;;5.90;63.00;;;6.03;54.12;97023.59;4928943;29;20063;-40
2022/04/05 00:50:22;;;;;;;7.93;5.80;;;5.90;63.20;;;6.07;53.55;97015.25;4926203;29;20061;-41
2022/04/05 00:52:50;;;;;;;6.87;4.87;;;6.00;63.00;;;6.06;54.04;97018.84;4928873;29;20063;-40
2022/04/05 00:55:23;;;;;;;6.93;5.23;;;6.00;63.10;;;6.06;54.28;97005.63;4928962;29;20069;-40
2022/04/05 00:57:54;;;;;;;6.93;4.63;;;6.00;63.20;;;6.08;53.83;97008.13;4928868;29;20379;-40
2022/04/05 01:00:22;;;;;;;8.87;4.93;;;6.00;63.50;;;6.11;53.96;97005.22;4928594;29;20056;-40
2022/04/05 01:02:54;;;;;;;9.37;4.90;;;6.00;63.50;;;6.12;54.30;97001.56;4925626;29;20047;-41
2022/04/05 01:05:23;;;;;;;9.00;5.10;;;6.10;63.50;;;6.16;53.86;97002.94;4927965;29;20055;-40
2022/04/05 01:07:51;;;;;;;8.20;4.90;;;6.10;63.60;;;6.17;54.21;96998.50;4929415;29;20051;-40
2022/04/05 01:10:21;;;;;;;8.30;4.97;;;6.10;63.60;;;6.20;54.29;96999.00;4930866;29;20066;-40
2022/04/05 01:12:49;;;;;;;8.67;5.43;;;6.10;63.70;;;6.21;54.58;97008.63;4932273;29;20054;-40
2022/04/05 01:15:35;;;;;;;5.90;4.53;;;6.10;63.70;;;6.15;54.48;97008.38;4932524;29;20069;-40
2022/04/05 01:18:20;;;;;;;5.87;4.53;;;6.10;63.90;;;6.22;53.97;97006.78;4930519;29;20353;-40
2022/04/05 01:20:56;;;;;;;5.47;4.75;;;6.10;63.90;;;6.22;54.25;97012.06;4930929;29;20261;-40
2022/04/05 01:23:24;;;;;;;7.43;5.13;;;6.20;64.10;;;6.27;54.94;97002.72;4931761;29;20241;-40
2022/04/05 01:25:52;;;;;;;6.80;4.90;;;6.20;64.20;;;6.25;54.73;96993.28;4932721;29;20043;-40
2022/04/05 01:28:20;;;;;;;6.87;4.60;;;6.20;64.60;;;6.23;54.21;96998.72;4930631;29;20065;-40
2022/04/05 01:30:48;;;;;;;7.70;4.87;;;6.20;64.40;;;6.27;54.42;96983.41;4931419;29;20066;-40
2022/04/05 01:33:16;;;;;;;6.73;4.77;;;6.20;64.40;;;6.27;54.79;96988.69;4932449;29;20361;-40
2022/04/05 01:35:45;;;;;;;7.07;4.53;;;6.20;64.70;;;6.30;54.42;96983.06;4930258;29;20230;-40
2022/04/05 01:38:14;;;;;;;7.23;5.30;;;6.30;64.80;;;6.07;56.55;96985.34;4932282;29;20044;-40
2022/04/05 01:40:42;;;;;;;6.70;4.33;;;6.10;66.60;;;6.22;55.60;96972.44;4932352;29;20109;-40
2022/04/05 01:43:10;;;;;;;5.67;4.50;;;6.20;65.90;;;6.25;55.57;96977.44;4931321;29;20253;-40
2022/04/05 01:45:37;;;;;;;5.63;4.20;;;6.20;66.50;;;6.26;55.39;96974.63;4933035;29;20677;-40
2022/04/05 01:48:06;;;;;;;6.60;4.40;;;6.30;66.60;;;6.29;55.78;96955.00;4931747;29;20369;-40
2022/04/05 01:50:33;;;;;;;7.27;4.37;;;6.30;66.40;;;6.31;56.73;96964.44;4932734;29;20478;-40
2022/04/05 01:53:01;;;;;;;5.87;4.47;;;6.30;67.10;;;6.31;56.54;96959.13;4931756;29;20066;-40
2022/04/05 01:55:29;;;;;;;7.70;4.73;;;6.30;67.60;;;6.35;56.57;96959.66;4931841;29;20048;-40
2022/04/05 01:57:57;;;;;;;6.57;4.67;;;6.30;68.30;;;6.37;56.78;96967.47;4931900;29;20054;-40
2022/04/05 02:00:25;;;;;;;6.37;4.07;;;6.30;68.30;;;6.38;56.38;96974.38;4931430;29;20064;-39
2022/04/05 02:02:53;;;;;;;6.77;4.17;;;6.30;68.30;;;6.37;57.04;96967.47;4932122;29;20054;-39
2022/04/05 02:05:22;;;;;;;6.23;5.17;;;6.30;69.80;;;6.33;57.34;96961.63;4930163;29;20051;-40
2022/04/05 02:07:51;;;;;;;6.77;4.93;;;6.30;68.60;;;6.38;57.02;96955.88;4931316;29;20059;-40
2022/04/05 02:10:19;;;;;;;7.27;5.23;;;6.30;70.00;;;6.23;57.58;96943.22;4931315;29;20069;-40
2022/04/05 02:12:47;;;;;;;5.37;4.03;;;6.30;69.10;;;6.22;57.61;96941.56;4929725;29;20054;-40
2022/04/05 02:15:28;;;;;;;6.20;4.17;;;6.20;69.10;;;6.31;57.58;96939.81;4928968;29;20063;-40
2022/04/05 02:18:03;;;;;;;7.63;4.57;;;6.30;69.50;;;6.28;57.41;96940.09;4928272;29;20554;-40
2022/04/05 02:20:33;;;;;;;6.97;3.93;;;6.30;69.00;;;6.33;57.89;96947.59;4928543;29;20055;-40
2022/04/05 02:23:02;;;;;;;5.17;4.33;;;6.30;68.70;;;6.27;57.91;96946.38;4929346;29;20067;-40
2022/04/05 02:25:44;;;;;;;5.67;4.23;;;6.30;68.40;;;6.29;57.34;96947.88;4928187;29;20070;-40
2022/04/05 02:28:14;;;;;;;5.87;4.07;;;6.30;68.10;;;6.38;56.53;96940.88;4930883;29;20056;-40
2022/04/05 02:30:49;;;;;;;5.90;4.60;;;6.40;68.10;;;6.45;56.56;96962.22;4929024;29;20354;-40
2022/04/05 02:33:20;;;;;;;5.67;4.13;;;6.40;67.80;;;6.41;57.04;96951.13;4928247;29;20369;-40
2022/04/05 02:35:51;;;;;;;7.13;4.00;;;6.40;68.10;;;6.45;57.12;96938.44;4929884;29;20052;-39
2022/04/05 02:38:21;;;;;;;8.13;3.67;;;6.40;68.10;;;6.48;56.92;96949.53;4928369;29;20051;-39
2022/04/05 02:40:49;;;;;;;6.77;3.60;;;6.40;68.20;;;6.53;57.20;96953.53;4929034;29;20054;-39
2022/04/05 02:43:18;;;;;;;7.67;4.63;;;6.50;68.90;;;6.58;57.29;96952.09;4929335;29;20139;-40
2022/04/05 02:45:47;;;;;;;5.90;3.87;;;6.50;68.90;;;6.58;57.61;96959.22;4929311;29;20241;-39
2022/04/05 02:48:16;;;;;;;7.57;4.27;;;6.50;68.70;;;6.58;57.04;96951.28;4929088;29;20060;-39
2022/04/05 02:50:44;;;;;;;6.60;4.60;;;6.50;69.50;;;6.49;58.15;96956.50;4928076;29;20192;-40
2022/04/05 02:53:12;;;;;;;6.60;4.30;;;6.50;69.70;;;6.40;58.07;96949.47;4928770;29;20067;-39
2022/04/05 02:55:42;;;;;;;7.27;4.87;;;6.40;69.80;;;6.44;57.63;96955.31;4930301;29;20089;-39
2022/04/05 02:58:11;;;;;;;7.57;4.57;;;6.30;71.70;;;6.47;58.32;96954.97;4929638;29;20051;-40
2022/04/05 03:00:40;;;;;;;8.30;4.63;;;6.40;71.50;;;6.47;58.49;96961.09;4928071;29;20055;-40
2022/04/05 03:03:12;;;;;;;7.33;4.63;;;6.30;71.40;;;6.46;57.66;96946.22;4929710;29;20052;-40
2022/04/05 03:05:48;;;;;;;6.20;4.60;;;6.30;71.10;;;6.48;58.18;96954.00;4928457;29;20357;-40
2022/04/05 03:08:17;;;;;;;7.73;4.40;;;6.40;72.10;;;6.53;57.47;96956.19;4912608;29;20063;-40
2022/04/05 03:10:45;;;;;;;6.93;4.23;;;6.40;71.50;;;6.54;58.03;96957.88;4928247;29;20062;-40
2022/04/05 03:13:15;;;;;;;5.23;4.20;;;6.40;71.20;;;6.37;58.43;96960.34;4928268;29;20063;-40
2022/04/05 03:15:44;;;;;;;8.17;5.37;;;6.30;71.60;;;6.27;58.83;96960.44;4927194;29;20070;-41
2022/04/05 03:18:13;;;;;;;25.47;13.60;;;6.20;71.80;;;6.41;57.94;96958.25;4928464;29;20058;-40
2022/04/05 03:20:41;;;;;;;8.30;5.90;;;6.30;71.80;;;6.48;58.43;96956.66;4928754;29;20441;-40
2022/04/05 03:23:10;;;;;;;7.53;5.67;;;6.40;71.60;;;6.47;58.14;96969.03;4927760;29;20060;-40
2022/04/05 03:25:38;;;;;;;6.23;4.67;;;6.40;71.70;;;6.48;58.48;96969.88;4930018;29;20261;-40
2022/04/05 03:28:06;;;;;;;7.47;5.20;;;6.30;71.80;;;6.44;59.12;96976.47;4930279;29;20062;-40
2022/04/05 03:30:34;;;;;;;6.03;5.00;;;6.30;72.20;;;6.43;58.21;96967.66;4929563;29;20065;-40
2022/04/05 03:33:06;;;;;;;6.03;5.10;;;6.20;71.80;;;6.51;58.66;96974.84;4927389;29;20226;-40
2022/04/05 03:35:35;;;;;;;7.10;4.93;;;6.30;71.80;;;6.55;58.32;96968.25;4928653;29;20073;-40
2022/04/05 03:38:04;;;;;;;7.73;5.40;;;6.40;71.80;;;6.58;57.95;96967.16;4912086;29;20448;-40
2022/04/05 03:40:33;;;;;;;7.03;4.80;;;6.40;71.80;;;6.62;58.01;96966.69;4927266;29;20060;-40
2022/04/05 03:43:05;;;;;;;7.40;6.20;;;6.40;71.70;;;6.65;58.52;96976.13;4928354;29;20055;-40
2022/04/05 03:45:33;;;;;;;8.47;4.87;;;6.50;74.00;;;6.64;58.06;96977.13;4912903;29;20060;-40
2022/04/05 03:48:02;;;;;;;9.57;5.83;;;6.40;73.20;;;6.68;58.75;96965.25;4928651;29;20249;-40
2022/04/05 03:50:31;;;;;;;7.33;5.83;;;6.50;72.50;;;6.70;57.85;96972.03;4927594;29;20079;-40
2022/04/05 03:53:01;;;;;;;5.73;4.53;;;6.50;72.50;;;6.75;58.29;96973.41;4928496;29;20067;-40
2022/04/05 03:55:33;;;;;;;5.67;4.67;;;6.60;72.10;;;6.76;58.13;96965.28;4930044;29;20060;-40
2022/04/05 03:58:03;;;;;;;6.10;4.50;;;6.60;72.50;;;6.78;58.13;96968.63;4927716;29;20051;-40
2022/04/05 04:00:32;;;;;;;7.47;5.93;;;6.60;72.50;;;6.81;58.56;96967.50;4926950;29;20397;-40
2022/04/05 04:03:14;;;;;;;11.23;7.63;;;6.60;72.50;;;6.82;58.58;96969.97;4927375;29;20059;-40
2022/04/05 04:05:42;;;;;;;10.23;7.37;;;6.60;72.40;;;6.82;58.51;96963.84;4927447;29;20055;-41
2022/04/05 04:08:11;;;;;;;6.10;4.73;;;6.60;73.10;;;6.83;58.06;96968.19;4926962;29;20055;-40
2022/04/05 04:10:40;;;;;;;6.67;5.00;;;6.60;72.50;;;6.81;58.62;96956.91;4927235;29;20060;-41
2022/04/05 04:13:08;;;;;;;5.43;4.63;;;6.60;72.20;;;6.81;58.68;96956.91;4911295;29;20066;-40
2022/04/05 04:15:41;;;;;;;7.00;4.97;;;6.60;71.80;;;6.82;58.56;96946.16;4928319;29;20267;-40
2022/04/05 04:18:10;;;;;;;6.50;3.97;;;6.60;72.20;;;6.83;58.52;96934.59;4927713;29;20059;-40
2022/04/05 04:20:44;;;;;;;5.87;4.53;;;6.60;72.50;;;6.82;58.10;96940.03;4927356;29;20068;-40
2022/04/05 04:23:16;;;;;;;8.53;4.13;;;6.60;72.40;;;6.84;58.42;96943.34;4925910;29;20060;-40
2022/04/05 04:25:50;;;;;;;6.10;4.27;;;6.60;72.70;;;6.83;58.47;96939.91;4928252;29;20059;-40
2022/04/05 04:28:20;;;;;;;7.47;5.37;;;6.60;72.20;;;6.83;58.75;96945.19;4927205;29;20056;-40
2022/04/05 04:30:49;;;;;;;6.60;4.10;;;6.60;72.50;;;6.81;58.45;96938.41;4929048;29;20047;-40
2022/04/05 04:33:17;;;;;;;5.30;4.03;;;6.60;72.20;;;6.82;58.85;96935.56;4928690;29;20059;-40
2022/04/05 04:35:45;;;;;;;5.17;4.30;;;6.60;72.60;;;6.81;58.70;96935.75;4928956;29;20059;-40
2022/04/05 04:38:15;;;;;;;5.37;4.27;;;6.60;72.90;;;6.79;59.12;96935.91;4928995;29;20293;-41
2022/04/05 04:40:48;;;;;;;6.57;3.90;;;6.60;73.20;;;6.80;58.65;96952.59;4929592;29;20054;-40
2022/04/05 04:43:18;;;;;;;6.73;4.60;;;6.60;73.80;;;6.72;59.18;96934.03;4933104;29;20051;-40
2022/04/05 04:45:47;;;;;;;7.40;4.43;;;6.40;74.60;;;6.73;59.37;96951.53;4933187;29;20070;-40
2022/04/05 04:48:14;;;;;;;6.93;4.43;;;6.40;75.40;;;6.73;59.21;96951.53;4933106;29;20043;-40
2022/04/05 04:50:42;;;;;;;6.40;4.43;;;6.50;75.30;;;6.74;59.33;96945.28;4932832;29;20058;-41
2022/04/05 04:53:10;;;;;;;7.53;4.83;;;6.50;75.40;;;6.73;59.10;96951.53;4932139;29;20261;-40
2022/04/05 04:55:38;;;;;;;9.80;6.07;;;6.50;76.00;;;6.74;60.08;96958.50;4932590;29;20059;-41
2022/04/05 04:58:26;;;;;;;7.40;5.20;;;6.50;77.30;;;6.74;59.51;96959.31;4932276;29;20066;-40
2022/04/05 05:00:54;;;;;;;9.33;4.90;;;6.40;77.10;;;6.75;59.79;96953.06;4932851;29;20276;-41
2022/04/05 05:03:22;;;;;;;9.23;5.90;;;6.50;78.50;;;6.74;60.79;96961.16;4932272;29;20055;-40
2022/04/05 05:05:50;;;;;;;10.10;7.23;;;6.40;79.30;;;6.71;61.35;96970.25;4930959;29;20066;-40
2022/04/05 05:08:18;;;;;;;8.60;5.10;;;6.40;80.60;;;6.66;60.70;96972.50;4932715;29;20078;-40
2022/04/05 05:10:46;;;;;;;6.10;4.67;;;6.30;80.50;;;6.63;61.06;96970.16;4932424;29;20059;-40
2022/04/05 05:13:13;;;;;;;8.27;5.43;;;6.30;80.90;;;6.62;61.00;96960.56;4932845;29;20430;-40
2022/04/05 05:15:42;;;;;;;9.77;5.27;;;6.20;82.20;;;6.60;61.00;96965.19;4933579;29;20054;-41
2022/04/05 05:18:10;;;;;;;11.23;5.70;;;6.30;83.50;;;6.59;62.03;96969.66;4932293;29;20368;-41
2022/04/05 05:20:38;;;;;;;6.90;5.63;;;6.20;84.40;;;6.61;61.88;96980.06;4932349;29;20055;-40
2022/04/05 05:23:06;;;;;;;8.67;5.43;;;6.30;85.10;;;6.62;62.38;96971.16;4932221;29;20040;-40
2022/04/05 05:25:34;;;;;;;6.43;5.03;;;6.30;85.40;;;6.60;61.98;96971.28;4931666;29;20051;-40
2022/04/05 05:28:02;;;;;;;10.03;6.63;;;6.30;86.20;;;6.47;62.39;96970.84;4931567;29;20055;-41
2022/04/05 05:30:30;;;;;;;8.47;6.10;;;6.10;87.90;;;6.42;62.85;96981.06;4932464;29;20059;-41
2022/04/05 05:32:58;;;;;;;9.80;7.80;;;6.00;89.20;;;6.41;62.67;96980.22;4931228;29;20059;-41
2022/04/05 05:35:26;;;;;;;8.67;7.20;;;6.00;89.90;;;6.37;62.40;96986.78;4929031;29;20367;-41
2022/04/05 05:37:56;;;;;;;10.03;8.80;;;6.00;91.20;;;6.38;63.26;96977.88;4931918;29;20062;-40
2022/04/05 05:40:24;;;;;;;12.23;8.30;;;6.00;93.20;;;6.41;63.16;96988.16;4932461;29;20407;-40
2022/04/05 05:43:01;;;;;;;10.37;7.97;;;6.00;93.20;;;6.43;63.16;96988.00;4932105;29;20059;-41
2022/04/05 05:45:35;;;;;;;10.50;9.27;;;6.10;93.60;;;6.45;63.30;96983.38;4930161;29;20059;-41
2022/04/05 05:48:05;;;;;;;16.03;10.13;;;6.10;95.70;;;6.45;62.85;96997.44;4931710;29;20048;-41
2022/04/05 05:50:34;;;;;;;14.67;10.00;;;6.10;98.80;;;6.44;63.25;96992.31;4932055;29;20264;-41
2022/04/05 05:53:02;;;;;;;9.87;7.63;;;6.20;98.70;;;6.46;63.46;96983.25;4931069;29;20063;-41
2022/04/05 05:55:31;;;;;;;12.17;8.40;;;6.20;99.90;;;6.45;63.25;96988.69;4932212;29;20055;-42
2022/04/05 05:57:59;;;;;;;11.53;7.17;;;6.10;99.90;;;6.44;63.62;96984.38;4930064;29;20078;-41
2022/04/05 06:00:27;;;;;;;10.10;6.77;;;6.10;99.90;;;6.43;64.18;96988.81;4930197;29;20353;-41
2022/04/05 06:03:01;;;;;;;9.07;6.80;;;6.10;99.90;;;6.43;63.54;96991.47;4930808;29;20056;-41
2022/04/05 06:05:30;;;;;;;9.00;6.57;;;6.10;99.90;;;6.41;63.66;97001.38;4932057;29;20342;-41
2022/04/05 06:07:58;;;;;;;10.03;6.87;;;6.00;99.90;;;6.38;63.65;96993.75;4931773;29;20055;-41
2022/04/05 06:10:26;;;;;;;10.07;8.50;;;6.00;99.90;;;6.35;64.45;96996.69;4931912;29;20048;-41
2022/04/05 06:12:58;;;;;;;14.20;8.23;;;6.00;99.90;;;6.34;64.16;97002.13;4931049;29;20346;-40
2022/04/05 06:15:27;;;;;;;11.37;8.07;;;6.00;99.90;;;6.36;64.02;97000.16;4930949;29;20060;-41
2022/04/05 06:17:55;;;;;;;11.97;7.90;;;6.00;99.90;;;6.34;64.37;97002.13;4930796;29;20372;-40
2022/04/05 06:20:24;;;;;;;12.07;8.03;;;6.00;99.90;;;6.34;64.39;96999.47;4930584;29;20051;-41
2022/04/05 06:22:59;;;;;;;13.77;7.70;;;5.90;99.90;;;6.32;64.42;97002.28;4931237;29;20056;-41
2022/04/05 06:25:35;;;;;;;12.80;7.97;;;5.90;99.90;;;6.33;64.36;97005.75;4931796;29;20054;-41
2022/04/05 06:28:07;;;;;;;12.27;7.83;;;5.90;99.90;;;6.33;64.72;97016.34;4931096;29;20082;-41
2022/04/05 06:30:39;;;;;;;10.87;8.30;;;6.00;99.90;;;6.34;64.24;97005.63;4930100;29;20053;-41
2022/04/05 06:33:21;;;;;;;13.93;9.10;;;6.00;99.90;;;6.35;64.56;97015.19;4930647;29;20060;-41
2022/04/05 06:35:59;;;;;;;12.10;8.47;;;6.00;99.90;;;6.35;65.04;97004.63;4931609;29;20052;-41
2022/04/05 06:38:28;;;;;;;18.07;8.23;;;6.00;99.90;;;6.34;66.02;97002.13;4930626;29;20253;-41
2022/04/05 06:41:01;;;;;;;10.00;7.40;;;6.00;99.90;;;6.36;64.58;97008.94;4930364;29;20051;-41
2022/04/05 06:43:30;;;;;;;11.17;6.37;;;6.00;99.90;;;6.38;64.62;97001.69;4941710;28;20042;-41
2022/04/05 06:45:58;;;;;;;8.07;6.03;;;6.00;99.90;;;6.41;65.28;97011.13;4942911;29;20055;-41
2022/04/05 06:48:27;;;;;;;9.80;6.67;;;6.10;99.90;;;6.41;64.76;97006.66;4960117;28;20051;-41
2022/04/05 06:50:58;;;;;;;6.97;5.40;;;6.00;99.90;;;6.44;65.08;97003.72;4957911;28;20047;-41
2022/04/05 06:53:27;;;;;;;9.33;7.50;;;6.10;99.90;;;6.45;64.88;97002.72;4960665;28;20279;-41
2022/04/05 06:55:55;;;;;;;8.50;6.87;;;6.10;99.90;;;6.48;65.39;97004.25;4960147;28;20054;-41
2022/04/05 06:58:23;;;;;;;50.53;27.93;;;6.10;99.90;;;6.49;65.37;97001.47;4959739;28;20267;-41
2022/04/05 07:00:51;;;;;;;13.27;8.83;;;6.10;99.90;;;6.48;65.85;97001.59;4960905;28;20051;-40
2022/04/05 07:03:19;;;;;;;27.10;14.63;;;6.10;99.90;;;6.50;65.39;96997.00;4959747;28;20050;-41
2022/04/05 07:05:48;;;;;;;9.77;7.10;;;6.10;99.90;;;6.53;65.21;96996.69;4959318;28;20054;-41
2022/04/05 07:08:16;;;;;;;9.83;6.93;;;6.20;99.90;;;6.57;65.25;96986.63;4960702;28;20054;-41
2022/04/05 07:10:44;;;;;;;13.47;9.23;;;6.30;99.90;;;6.59;66.19;97000.53;4960684;28;20051;-41
2022/04/05 07:13:12;;;;;;;12.47;8.00;;;6.30;99.90;;;6.60;65.27;96994.28;4961058;29;20046;-41
2022/04/05 07:15:40;;;;;;;10.30;7.73;;;6.30;99.90;;;6.62;65.22;96995.78;4960050;28;20337;-40
2022/04/05 07:18:13;;;;;;;9.37;8.03;;;6.30;99.90;;;6.63;66.03;96997.44;4960121;29;20047;-40
2022/04/05 07:20:41;;;;;;;9.40;6.80;;;6.40;99.90;;;6.66;65.96;96993.66;4961270;29;20807;-40
2022/04/05 07:23:09;;;;;;;18.83;7.53;;;6.40;99.90;;;6.67;65.54;96990.03;4960785;28;20061;-41
2022/04/05 07:25:37;;;;;;;8.97;6.40;;;6.40;99.90;;;6.65;65.72;96999.91;4960044;29;20361;-40
2022/04/05 07:28:06;;;;;;;16.07;9.63;;;6.40;99.90;;;6.64;66.14;96998.28;4961002;29;20055;-40
2022/04/05 07:30:34;;;;;;;17.73;11.30;;;6.40;99.90;;;6.67;65.78;96997.97;4961074;29;20070;-40
2022/04/05 07:33:03;;;;;;;17.10;10.07;;;6.40;99.90;;;6.66;66.10;97009.53;4961020;29;20061;-40
2022/04/05 07:35:31;;;;;;;14.17;8.33;;;6.40;99.90;;;6.67;65.79;97004.09;4959058;28;20051;-40
2022/04/05 07:37:59;;;;;;;15.50;11.53;;;6.40;99.90;;;6.70;65.77;97011.72;4958684;28;20077;-41
2022/04/05 07:40:47;;;;;;;10.43;6.23;;;6.40;99.90;;;6.73;66.30;97001.81;4957596;28;20077;-41
2022/04/05 07:43:18;;;;;;;8.37;6.17;;;6.40;99.90;;;6.74;66.26;96991.06;4960069;29;20049;-41
2022/04/05 07:45:49;;;;;;;10.77;6.13;;;6.50;99.90;;;6.79;65.69;96990.63;4958952;28;20366;-41
2022/04/05 07:48:25;;;;;;;5.80;4.93;;;6.50;99.90;;;6.78;65.93;97003.00;4959818;28;20065;-41
2022/04/05 07:50:53;;;;;;;8.53;5.73;;;6.60;99.90;;;6.80;65.58;96994.94;4960328;29;20035;-41
2022/04/05 07:53:20;;;;;;;7.90;6.00;;;6.60;99.90;;;6.83;66.27;96994.63;4960394;29;20365;-41
2022/04/05 07:55:49;;;;;;;8.10;6.20;;;6.60;99.90;;;6.84;66.07;96998.94;4957972;28;20498;-41
2022/04/05 07:58:16;;;;;;;8.27;4.97;;;6.60;99.90;;;6.85;65.98;96998.78;4957577;28;20043;-41
2022/04/05 08:00:44;;;;;;;7.37;4.77;;;6.60;99.90;;;6.86;65.37;96991.66;4948090;28;20051;-41
2022/04/05 08:03:12;;;;;;;8.20;5.13;;;6.70;99.90;;;6.88;65.49;96995.84;4948150;28;20061;-41
2022/04/05 08:05:41;;;;;;;7.23;5.33;;;6.70;99.90;;;6.92;66.07;96995.50;4951495;28;20064;-41
2022/04/05 08:08:09;;;;;;;6.53;4.67;;;6.70;99.90;;;6.95;66.32;96997.84;4952123;29;20047;-41
2022/04/05 08:10:37;;;;;;;5.90;4.80;;;6.70;99.90;;;6.96;65.69;97000.34;4955410;29;20349;-41
2022/04/05 08:13:05;;;;;;;7.00;5.07;;;6.80;99.90;;;6.99;66.37;97001.84;4952159;29;20492;-41
2022/04/05 08:15:34;;;;;;;5.37;4.40;;;6.80;99.90;;;6.99;65.73;97013.25;4951395;29;20063;-41
2022/04/05 08:18:02;;;;;;;8.13;4.60;;;6.80;99.90;;;7.00;66.07;97022.88;4950663;28;20055;-41
2022/04/05 08:20:31;;;;;;;8.33;5.07;;;6.80;99.90;;;7.00;65.95;97019.38;4948557;29;20372;-41
2022/04/05 08:22:59;;;;;;;6.70;5.13;;;6.80;99.90;;;7.02;66.37;97020.91;4953975;28;20084;-41
2022/04/05 08:25:28;;;;;;;7.03;5.00;;;6.80;99.90;;;7.06;66.23;97027.56;4955002;29;20066;-41
2022/04/05 08:27:57;;;;;;;7.40;4.83;;;6.80;99.90;;;7.09;66.56;97029.06;4951029;28;20382;-41
2022/04/05 08:30:25;;;;;;;6.93;4.90;;;6.90;99.90;;;7.13;65.86;97024.28;4951298;28;20063;-41
2022/04/05 08:32:53;;;;;;;7.23;4.23;;;6.90;99.90;;;7.15;66.11;97023.13;4950373;29;20054;-40
2022/04/05 08:35:23;;;;;;;6.13;4.53;;;7.00;99.90;;;7.19;66.14;97029.81;4936622;29;20049;-40
2022/04/05 08:37:54;;;;;;;5.40;4.03;;;7.00;99.90;;;7.22;65.89;97026.84;4931797;29;20369;-40
2022/04/05 08:40:25;;;;;;;5.47;3.80;;;7.10;99.90;;;7.26;66.35;97024.72;4947317;29;20349;-40
2022/04/05 08:42:55;;;;;;;5.37;4.40;;;7.10;99.90;;;7.27;66.08;97027.22;4948508;29;20332;-40
2022/04/05 08:45:26;;;;;;;6.87;4.80;;;7.10;99.90;;;7.30;66.07;97021.59;4943998;29;20043;-40
2022/04/05 08:48:09;;;;;;;6.80;4.20;;;7.20;99.90;;;7.34;65.72;97023.94;4930588;29;20055;-40
2022/04/05 08:50:37;;;;;;;6.03;4.77;;;7.20;99.90;;;7.37;66.20;97029.75;4949869;29;20418;-40
2022/04/05 08:53:05;;;;;;;4.70;3.90;;;7.20;99.90;;;7.40;65.84;97025.94;4940922;29;20061;-40
2022/04/05 08:55:53;;;;;;;4.60;3.83;;;7.30;99.90;;;7.44;65.66;97029.94;4929524;29;20065;-40
2022/04/05 08:58:21;;;;;;;4.97;3.70;;;7.30;99.90;;;7.47;66.02;97027.81;4929391;29;20284;-40
2022/04/05 09:00:52;;;;;;;6.37;4.47;;;7.30;99.90;;;7.50;65.90;97034.59;4930024;29;20052;-40
2022/04/05 09:03:20;;;;;;;5.97;4.33;;;7.40;99.90;;;7.53;66.10;97036.13;4948307;28;20053;-40
2022/04/05 09:05:50;;;;;;;5.97;4.63;;;7.40;99.90;;;7.55;66.71;97031.50;4949139;29;20070;-40
2022/04/05 09:08:30;;;;;;;5.27;3.57;;;7.40;99.90;;;7.60;65.93;97030.06;4930441;29;20341;-40
2022/04/05 09:11:03;;;;;;;4.73;4.13;;;7.50;99.90;;;7.62;66.44;97038.66;4946844;29;20082;-40
2022/04/05 09:13:32;;;;;;;4.72;4.20;;;7.60;99.90;;;7.67;66.30;97035.53;4947971;29;20059;-41
2022/04/05 09:16:04;;;;;;;5.07;4.23;;;7.60;99.90;;;7.72;66.13;97043.03;4947073;29;20308;-41
2022/04/05 09:18:44;;;;;;;6.53;4.20;;;7.60;99.90;;;7.72;66.67;97035.09;4947763;28;20054;-41
2022/04/05 09:21:15;;;;;;;4.10;3.53;;;7.60;99.90;;;7.78;66.49;97034.44;4947763;29;20405;-41
2022/04/05 09:23:44;;;;;;;4.30;3.03;;;7.70;99.90;;;7.74;67.11;97039.22;4948318;29;20065;-41
2022/04/05 09:26:15;;;;;;;5.27;2.93;;;7.70;99.90;;;7.80;66.65;97032.47;4948528;29;20061;-41
2022/04/05 09:28:49;;;;;;;2.37;1.83;;;7.80;99.90;;;7.73;67.10;97031.44;4949462;28;20341;-41
2022/04/05 09:31:22;;;;;;;1.83;1.60;;;7.70;99.90;;;7.75;67.60;97038.22;4950681;29;20585;-41
2022/04/05 09:34:16;;;;;;;2.50;1.60;;;7.70;99.90;;;7.77;67.60;97035.41;4950926;29;20344;-41
2022/04/05 09:36:51;;;;;;;1.88;1.60;;;7.80;99.90;;;7.81;67.45;97034.13;4949450;28;20059;-41
2022/04/05 09:39:25;;;;;;;3.10;1.80;;;7.90;99.90;;;7.74;67.90;97033.09;4951869;29;20059;-41
2022/04/05 09:42:05;;;;;;;2.03;1.47;;;7.90;99.90;;;7.83;67.98;97045.38;4951292;29;20063;-41
2022/04/05 09:44:40;;;;;;;2.33;1.63;;;7.90;99.90;;;7.86;68.41;97029.19;4950831;29;20070;-41
2022/04/05 09:47:20;;;;;;;2.00;1.77;;;8.00;99.90;;;7.94;68.18;97038.97;4948967;29;20059;-41
2022/04/05 09:49:49;;;;;;;2.37;1.63;;;8.00;99.90;;;7.96;68.25;97042.31;4951734;29;20051;-41
2022/04/05 09:52:33;;;;;;;2.37;1.73;;;8.10;99.90;;;7.96;68.19;97053.72;4944624;29;20044;-41
2022/04/05 09:55:19;;;;;;;2.22;1.55;;;8.10;99.90;;;7.95;67.79;97048.56;4931896;29;20064;-41
2022/04/05 09:57:47;;;;;;;2.43;1.50;;;8.10;99.90;;;7.86;68.49;97051.19;4932480;29;20052;-41
2022/04/05 10:00:18;;;;;;;3.03;2.30;;;8.00;99.90;;;7.74;69.01;97038.41;4930536;29;20071;-41
2022/04/05 10:03:11;;;;;;;2.40;1.53;;;7.90;99.90;;;7.80;68.56;97041.25;4946685;29;20061;-41
2022/04/05 10:05:39;;;;;;;2.50;1.80;;;7.90;99.90;;;7.77;69.28;97040.72;4950887;29;20053;-41
2022/04/05 10:08:07;;;;;;;2.73;1.70;;;8.00;99.90;;;7.80;69.02;97040.41;4950994;29;20639;-41
2022/04/05 10:10:35;;;;;;;2.57;2.03;;;7.90;99.90;;;7.79;69.60;97055.50;4950803;29;20063;-41
2022/04/05 10:13:04;;;;;;;2.00;1.60;;;8.00;99.90;;;7.81;68.92;97050.88;4950911;29;20062;-41
2022/04/05 10:15:32;;;;;;;2.13;1.50;;;8.00;99.90;;;7.76;69.52;97047.03;4942987;29;20059;-41
2022/04/05 10:18:02;;;;;;;4.43;2.43;;;8.00;99.90;;;7.75;70.22;97043.53;4948538;29;20050;-42
2022/04/05 10:20:31;;;;;;;2.73;1.50;;;8.10;99.90;;;7.83;69.58;97037.44;4950740;29;20066;-42
2022/04/05 10:23:02;;;;;;;1.83;1.40;;;8.10;99.90;;;7.99;68.76;97040.16;4949147;29;20539;-42
2022/04/05 10:25:30;;;;;;;2.13;1.43;;;8.20;99.90;;;8.03;69.31;97049.47;4948146;29;20058;-40
2022/04/05 10:27:59;;;;;;;1.57;1.37;;;8.30;99.90;;;8.12;68.91;97041.53;4949780;29;20055;-41
2022/04/05 10:30:38;;;;;;;2.10;1.67;;;8.40;99.90;;;8.19;68.87;97046.03;4949486;29;20055;-41
2022/04/05 10:33:29;;;;;;;2.10;1.33;;;8.50;99.90;;;8.19;68.76;97050.50;4948456;29;20437;-40
2022/04/05 10:35:59;;;;;;;1.90;1.60;;;8.50;99.90;;;8.38;68.03;97044.94;4949275;29;20069;-40
2022/04/05 10:38:30;;;;;;;1.47;1.10;;;8.60;99.90;;;8.19;68.51;97047.84;4950019;28;20053;-42
2022/04/05 10:41:20;;;;;;;1.83;1.23;;;8.60;99.90;;;8.21;68.20;97037.91;4949497;28;20621;-40
2022/04/05 10:44:29;;;;;;;1.37;1.27;;;8.50;99.90;;;8.24;67.68;97054.34;4949701;29;20055;-41
2022/04/05 10:47:01;;;;;;;1.60;1.37;;;8.60;99.90;;;8.20;67.84;97042.41;4949844;29;20053;-41